createdAt,value
2019-02-14T00:01:59.767Z,91.00
2019-02-14T00:04:26.454Z,91.00
2019-02-14T00:06:53.428Z,91.00
2019-02-14T00:09:20.131Z,91.00
2019-02-14T00:11:48.965Z,91.00
2019-02-14T00:14:15.586Z,91.00
2019-02-14T00:16:42.372Z,91.00
2019-02-14T00:19:10.185Z,91.30
2019-02-14T00:21:37.220Z,91.00
2019-02-14T00:24:03.975Z,90.90
2019-02-14T00:26:30.659Z,91.00
2019-02-14T00:28:57.830Z,90.90
2019-02-14T00:31:24.515Z,91.00
2019-02-14T00:33:52.367Z,90.90
2019-02-14T00:36:19.515Z,90.90
2019-02-14T00:38:46.206Z,90.90
2019-02-14T00:41:12.818Z,90.90
2019-02-14T00:43:39.438Z,90.90
2019-02-14T00:46:06.190Z,90.70
2019-02-14T00:48:33.112Z,90.90
2019-02-14T00:50:59.833Z,91.30
2019-02-14T00:53:26.442Z,90.90
2019-02-14T00:55:53.191Z,90.90
2019-02-14T00:58:19.808Z,91.00
2019-02-14T01:00:46.554Z,90.90
2019-02-14T01:03:15.233Z,91.00
2019-02-14T01:05:41.830Z,91.00
2019-02-14T01:08:08.586Z,90.90
2019-02-14T01:10:35.356Z,90.90
2019-02-14T01:13:01.986Z,90.90
2019-02-14T01:15:28.936Z,90.80
2019-02-14T01:17:56.654Z,90.90
2019-02-14T01:20:23.345Z,90.70
2019-02-14T01:22:50.587Z,90.90
2019-02-14T01:25:17.375Z,90.90
2019-02-14T01:27:43.952Z,90.90
2019-02-14T01:30:10.549Z,90.90
2019-02-14T01:32:37.498Z,90.90
2019-02-14T01:35:04.210Z,90.90
2019-02-14T01:37:31.029Z,90.90
2019-02-14T01:39:57.679Z,90.90
2019-02-14T01:42:24.949Z,90.90
2019-02-14T01:44:51.649Z,90.90
2019-02-14T01:47:18.280Z,90.90
2019-02-14T01:49:45.575Z,90.90
2019-02-14T01:52:12.272Z,90.90
2019-02-14T01:54:38.929Z,90.90
2019-02-14T01:57:05.629Z,90.90
2019-02-14T01:59:32.515Z,90.90
2019-02-14T02:01:59.175Z,90.90
2019-02-14T02:04:25.753Z,90.80
2019-02-14T02:06:52.401Z,90.90
2019-02-14T02:09:19.037Z,90.90
2019-02-14T02:11:46.406Z,90.90
2019-02-14T02:14:13.035Z,90.90
2019-02-14T02:16:39.639Z,90.90
2019-02-14T02:19:06.575Z,90.90
2019-02-14T02:21:33.370Z,90.90
2019-02-14T02:24:00.439Z,91.00
2019-02-14T02:26:27.413Z,90.90
2019-02-14T02:28:55.185Z,90.90
2019-02-14T02:31:23.571Z,90.90
2019-02-14T02:33:50.574Z,90.90
2019-02-14T02:36:17.243Z,90.90
2019-02-14T02:38:43.975Z,90.80
2019-02-14T02:41:11.007Z,90.80
2019-02-14T02:43:37.615Z,90.80
2019-02-14T02:46:04.355Z,90.70
2019-02-14T02:48:31.169Z,90.80
2019-02-14T02:50:58.110Z,90.90
2019-02-14T02:53:24.895Z,90.90
2019-02-14T02:55:53.301Z,90.90
2019-02-14T02:58:20.980Z,90.90
2019-02-14T03:00:47.714Z,91.20
2019-02-14T03:03:14.636Z,90.90
2019-02-14T03:05:41.272Z,90.90
2019-02-14T03:08:08.081Z,90.90
2019-02-14T03:10:34.812Z,90.90
2019-02-14T03:13:01.629Z,90.90
2019-02-14T03:15:28.339Z,90.90
2019-02-14T03:17:55.068Z,90.90
2019-02-14T03:20:23.096Z,90.90
2019-02-14T03:22:50.072Z,90.80
2019-02-14T03:25:17.265Z,90.90
2019-02-14T03:27:43.888Z,90.80
2019-02-14T03:30:10.606Z,90.90
2019-02-14T03:32:37.413Z,90.90
2019-02-14T03:35:04.082Z,90.90
2019-02-14T03:37:30.753Z,90.90
2019-02-14T03:39:57.431Z,90.90
2019-02-14T03:42:24.250Z,90.80
2019-02-14T03:44:51.212Z,90.80
2019-02-14T03:47:17.833Z,90.80
2019-02-14T03:49:44.774Z,90.90
2019-02-14T03:52:12.548Z,90.90
2019-02-14T03:54:39.525Z,90.90
2019-02-14T03:57:06.246Z,90.90
2019-02-14T03:59:34.115Z,90.90
2019-02-14T04:02:00.840Z,90.90
2019-02-14T04:04:27.901Z,90.80
2019-02-14T04:06:54.654Z,90.90
2019-02-14T04:09:21.322Z,90.80
2019-02-14T04:11:48.032Z,90.90
2019-02-14T04:14:14.859Z,90.80
2019-02-14T04:16:41.941Z,91.00
2019-02-14T04:19:08.759Z,90.90
2019-02-14T04:21:37.330Z,90.90
2019-02-14T04:24:03.891Z,90.80
2019-02-14T04:26:30.589Z,90.80
2019-02-14T04:28:59.035Z,91.20
2019-02-14T04:31:25.745Z,90.90
2019-02-14T04:33:52.355Z,90.90
2019-02-14T04:36:19.439Z,90.90
2019-02-14T04:38:47.235Z,90.90
2019-02-14T04:41:14.052Z,90.80
2019-02-14T04:43:40.778Z,90.80
2019-02-14T04:46:07.513Z,90.90
2019-02-14T04:48:34.461Z,90.80
2019-02-14T04:51:01.110Z,90.80
2019-02-14T04:53:28.072Z,90.80
2019-02-14T04:55:56.299Z,90.80
2019-02-14T04:58:23.021Z,90.80
2019-02-14T05:00:49.721Z,90.80
2019-02-14T05:03:16.499Z,90.80
2019-02-14T05:05:43.237Z,90.80
2019-02-14T05:08:11.466Z,90.80
2019-02-14T05:10:38.149Z,90.90
2019-02-14T05:13:04.891Z,90.90
2019-02-14T05:15:31.513Z,90.80
2019-02-14T05:17:59.806Z,90.80
2019-02-14T05:20:26.567Z,90.80
2019-02-14T05:22:53.345Z,90.90
2019-02-14T05:25:19.896Z,90.80
2019-02-14T05:27:46.593Z,90.80
2019-02-14T05:30:13.684Z,90.80
2019-02-14T05:32:42.186Z,90.80
2019-02-14T05:35:08.914Z,90.90
2019-02-14T05:37:35.794Z,90.80
2019-02-14T05:40:02.651Z,91.20
2019-02-14T05:42:31.494Z,90.80
2019-02-14T05:44:58.448Z,90.80
2019-02-14T05:47:25.076Z,90.80
2019-02-14T05:49:51.683Z,91.20
2019-02-14T05:52:20.501Z,90.80
2019-02-14T05:54:46.968Z,90.80
2019-02-14T05:57:14.870Z,90.80
2019-02-14T05:59:43.946Z,90.80
2019-02-14T06:02:10.447Z,90.80
2019-02-14T06:04:37.182Z,90.80
2019-02-14T06:07:04.129Z,90.80
2019-02-14T06:09:31.064Z,90.80
2019-02-14T06:11:58.341Z,90.80
2019-02-14T06:14:25.401Z,90.80
2019-02-14T06:16:52.414Z,90.80
2019-02-14T06:19:19.409Z,91.10
2019-02-14T06:21:46.066Z,90.80
2019-02-14T06:24:12.678Z,90.80
2019-02-14T06:26:39.831Z,90.70
2019-02-14T06:29:06.506Z,90.80
2019-02-14T06:31:33.231Z,90.70
2019-02-14T06:34:00.002Z,90.70
2019-02-14T06:36:26.871Z,90.80
2019-02-14T06:38:55.463Z,90.80
2019-02-14T06:41:23.190Z,91.10
2019-02-14T06:43:49.777Z,90.70
2019-02-14T06:46:17.096Z,90.80
2019-02-14T06:48:43.916Z,90.80
2019-02-14T06:51:10.611Z,91.00
2019-02-14T06:53:37.532Z,90.80
2019-02-14T06:56:06.401Z,90.80
2019-02-14T06:58:33.009Z,90.70
2019-02-14T07:01:00.102Z,90.80
2019-02-14T07:03:28.073Z,90.80
2019-02-14T07:05:54.720Z,90.80
2019-02-14T07:08:21.535Z,90.80
2019-02-14T07:10:48.409Z,90.80
2019-02-14T07:13:15.145Z,90.80
2019-02-14T07:15:41.995Z,90.80
2019-02-14T07:18:09.055Z,90.80
2019-02-14T07:20:35.742Z,90.80
2019-02-14T07:23:03.845Z,90.80
2019-02-14T07:25:30.601Z,90.80
2019-02-14T07:27:57.501Z,90.80
2019-02-14T07:30:24.376Z,90.70
2019-02-14T07:32:51.225Z,90.70
2019-02-14T07:35:18.118Z,90.80
2019-02-14T07:37:44.926Z,90.80
2019-02-14T07:40:11.669Z,90.80
2019-02-14T07:42:38.472Z,90.80
2019-02-14T07:45:05.642Z,90.80
2019-02-14T07:47:32.851Z,90.70
2019-02-14T07:49:59.878Z,90.80
2019-02-14T07:52:26.907Z,90.80
2019-02-14T07:54:53.661Z,90.80
2019-02-14T07:57:20.471Z,90.80
2019-02-14T07:59:47.219Z,90.80
2019-02-14T08:02:13.970Z,90.80
2019-02-14T08:04:41.734Z,90.80
2019-02-14T08:07:08.593Z,90.80
2019-02-14T08:09:36.980Z,90.80
2019-02-14T08:12:03.903Z,90.90
2019-02-14T08:14:30.789Z,90.80
2019-02-14T08:16:57.990Z,90.60
2019-02-14T08:19:26.214Z,90.80
2019-02-14T08:21:54.292Z,90.80
2019-02-14T08:24:21.067Z,90.90
2019-02-14T08:26:48.338Z,90.80
2019-02-14T08:29:15.555Z,90.80
2019-02-14T08:31:43.594Z,90.80
2019-02-14T08:34:10.304Z,90.90
2019-02-14T08:36:38.783Z,90.80
2019-02-14T08:39:07.364Z,90.90
2019-02-14T08:41:34.307Z,90.90
2019-02-14T08:44:01.002Z,90.90
2019-02-14T08:46:27.718Z,90.90
2019-02-14T08:48:54.442Z,90.90
2019-02-14T08:51:21.251Z,90.90
2019-02-14T08:53:48.198Z,90.90
2019-02-14T08:56:16.387Z,90.80
2019-02-14T08:58:44.289Z,90.90
2019-02-14T09:01:12.449Z,90.90
2019-02-14T09:03:39.629Z,91.00
2019-02-14T09:06:06.439Z,91.30
2019-02-14T09:08:33.145Z,90.70
2019-02-14T09:10:59.968Z,90.90
2019-02-14T09:13:28.671Z,91.00
2019-02-14T09:15:57.703Z,91.00
2019-02-14T09:18:26.230Z,91.00
2019-02-14T09:20:54.044Z,91.00
2019-02-14T09:23:20.907Z,91.00
2019-02-14T09:25:48.666Z,91.10
2019-02-14T09:28:16.017Z,91.00
2019-02-14T09:30:44.481Z,91.00
2019-02-14T09:33:11.759Z,91.00
2019-02-14T09:35:38.699Z,91.00
2019-02-14T09:38:06.971Z,91.00
2019-02-14T09:40:35.381Z,91.00
2019-02-14T09:43:02.688Z,91.10
2019-02-14T09:45:29.989Z,91.10
2019-02-14T09:47:57.132Z,91.00
2019-02-14T09:50:25.041Z,91.10
2019-02-14T09:52:54.056Z,91.00
2019-02-14T09:55:22.989Z,91.00
2019-02-14T09:57:50.426Z,91.10
2019-02-14T10:00:19.170Z,91.00
2019-02-14T10:02:47.505Z,91.10
2019-02-14T10:05:15.585Z,91.40
2019-02-14T10:07:42.447Z,91.10
2019-02-14T10:10:09.625Z,91.00
2019-02-14T10:12:36.458Z,91.40
2019-02-14T10:15:03.357Z,91.10
2019-02-14T10:17:31.381Z,91.10
2019-02-14T10:19:58.003Z,91.10
2019-02-14T10:22:24.838Z,91.10
2019-02-14T10:24:52.623Z,91.10
2019-02-14T10:27:19.943Z,91.10
2019-02-14T10:29:46.865Z,91.10
2019-02-14T10:32:13.605Z,91.10
2019-02-14T10:34:40.338Z,91.10
2019-02-14T10:37:07.117Z,91.10
2019-02-14T10:39:34.173Z,91.10
2019-02-14T10:42:01.260Z,91.10
2019-02-14T10:44:28.555Z,91.10
2019-02-14T10:46:55.194Z,91.10
2019-02-14T10:49:21.893Z,91.20
2019-02-14T10:51:48.620Z,91.10
2019-02-14T10:54:15.372Z,91.10
2019-02-14T10:56:42.180Z,91.20
2019-02-14T10:59:08.874Z,91.10
2019-02-14T11:01:36.902Z,91.10
2019-02-14T11:04:04.044Z,91.10
2019-02-14T11:06:30.764Z,91.20
2019-02-14T11:08:57.502Z,91.10
2019-02-14T11:11:24.365Z,91.10
2019-02-14T11:13:50.928Z,91.20
2019-02-14T11:16:17.643Z,91.20
2019-02-14T11:18:44.736Z,91.20
2019-02-14T11:21:11.486Z,91.10
2019-02-14T11:23:38.134Z,91.10
2019-02-14T11:26:04.835Z,91.10
2019-02-14T11:28:31.491Z,91.10
2019-02-14T11:30:58.335Z,91.10
2019-02-14T11:33:26.970Z,91.20
2019-02-14T11:35:53.812Z,91.10
2019-02-14T11:38:20.677Z,91.20
2019-02-14T11:40:47.343Z,91.10
2019-02-14T11:43:14.343Z,91.50
2019-02-14T11:45:41.295Z,91.10
2019-02-14T11:48:07.932Z,91.10
2019-02-14T11:50:35.548Z,91.20
2019-02-14T11:53:02.334Z,91.20
2019-02-14T11:55:29.278Z,91.10
2019-02-14T11:57:56.137Z,91.10
2019-02-14T12:00:24.152Z,91.30
2019-02-14T12:02:55.462Z,91.10
2019-02-14T12:05:19.667Z,91.10
2019-02-14T12:07:46.661Z,91.10
2019-02-14T12:10:14.002Z,91.10
2019-02-14T12:12:40.801Z,91.10
2019-02-14T12:15:09.291Z,91.00
2019-02-14T12:17:36.196Z,91.10
2019-02-14T12:20:03.255Z,91.20
2019-02-14T12:22:30.045Z,91.10
2019-02-14T12:24:56.637Z,91.10
2019-02-14T12:27:23.300Z,91.10
2019-02-14T12:29:51.268Z,91.10
2019-02-14T12:32:18.143Z,91.10
2019-02-14T12:34:44.901Z,91.00
2019-02-14T12:37:12.001Z,91.10
2019-02-14T12:39:38.775Z,91.10
2019-02-14T12:42:07.585Z,91.10
2019-02-14T12:44:34.291Z,91.10
2019-02-14T12:47:01.202Z,91.10
2019-02-14T12:49:30.020Z,91.10
2019-02-14T12:51:56.677Z,91.10
2019-02-14T12:54:23.513Z,91.10
2019-02-14T12:56:52.383Z,91.10
2019-02-14T12:59:19.502Z,91.10
2019-02-14T13:01:48.936Z,91.10
2019-02-14T13:04:15.587Z,91.10
2019-02-14T13:06:42.358Z,91.10
2019-02-14T13:09:19.303Z,91.10
2019-02-14T13:11:38.848Z,91.00
2019-02-14T13:14:05.701Z,91.10
2019-02-14T13:16:32.440Z,91.00
2019-02-14T13:18:59.376Z,91.10
2019-02-14T13:21:26.251Z,91.00
2019-02-14T13:23:53.390Z,91.00
2019-02-14T13:26:21.248Z,91.00
2019-02-14T13:28:48.384Z,91.00
2019-02-14T13:31:15.139Z,91.00
2019-02-14T13:33:41.993Z,91.00
2019-02-14T13:36:09.175Z,91.00
2019-02-14T13:38:35.901Z,91.00
2019-02-14T13:41:04.383Z,91.00
2019-02-14T13:43:31.068Z,91.00
2019-02-14T13:45:57.934Z,91.00
2019-02-14T13:48:24.735Z,90.90
2019-02-14T13:50:51.530Z,90.90
2019-02-14T13:53:18.367Z,91.00
2019-02-14T13:55:45.152Z,91.00
2019-02-14T13:58:12.292Z,91.10
2019-02-14T14:00:39.505Z,90.90
2019-02-14T14:03:06.149Z,91.00
2019-02-14T14:05:33.177Z,90.90
2019-02-14T14:08:00.329Z,90.90
2019-02-14T14:10:27.080Z,90.90
2019-02-14T14:12:53.706Z,90.90
2019-02-14T14:15:20.776Z,90.90
2019-02-14T14:17:47.427Z,90.90
2019-02-14T14:20:14.251Z,90.90
2019-02-14T14:22:42.059Z,90.90
2019-02-14T14:25:08.798Z,90.90
2019-02-14T14:27:35.519Z,90.90
2019-02-14T14:30:02.182Z,90.90
2019-02-14T14:32:31.267Z,90.90
2019-02-14T14:34:57.780Z,90.90
2019-02-14T14:37:24.541Z,90.90
2019-02-14T14:39:51.395Z,90.90
2019-02-14T14:42:36.203Z,90.80
2019-02-14T14:45:03.829Z,90.80
2019-02-14T14:47:30.434Z,90.80
2019-02-14T14:49:58.407Z,90.80
2019-02-14T14:52:25.137Z,90.80
2019-02-14T14:54:52.209Z,90.80
2019-02-14T14:57:18.845Z,90.80
2019-02-14T14:59:45.638Z,90.80
2019-02-14T15:02:12.357Z,90.80
2019-02-14T15:04:39.187Z,90.80
2019-02-14T15:07:05.947Z,90.80
2019-02-14T15:09:34.428Z,90.80
2019-02-14T15:12:01.395Z,90.80
2019-02-14T15:14:28.275Z,90.80
2019-02-14T15:16:55.007Z,90.80
2019-02-14T15:19:21.624Z,90.80
2019-02-14T15:21:48.339Z,90.80
2019-02-14T15:24:15.044Z,90.80
2019-02-14T15:26:41.736Z,90.80
2019-02-14T15:29:08.950Z,90.80
2019-02-14T15:31:35.594Z,90.80
2019-02-14T15:36:42.978Z,89.80
2019-02-14T15:39:09.689Z,90.80
2019-02-14T15:41:36.566Z,90.70
2019-02-14T15:44:03.516Z,90.80
2019-02-14T15:46:30.126Z,90.70
2019-02-14T15:48:57.957Z,90.80
2019-02-14T15:51:24.770Z,90.80
2019-02-14T15:53:51.509Z,90.80
2019-02-14T15:56:18.436Z,90.80
2019-02-14T15:58:45.059Z,90.80
2019-02-14T16:01:14.450Z,90.70
2019-02-14T16:03:40.638Z,90.70
2019-02-14T16:06:08.804Z,90.70
2019-02-14T16:08:35.458Z,90.70
2019-02-14T16:11:02.323Z,90.70
2019-02-14T16:13:29.573Z,90.70
2019-02-14T16:15:58.901Z,90.80
2019-02-14T16:18:25.917Z,90.70
2019-02-14T16:20:53.163Z,90.80
2019-02-14T16:23:19.924Z,90.80
2019-02-14T16:25:46.695Z,90.70
2019-02-14T16:28:14.678Z,90.80
2019-02-14T16:30:41.560Z,90.80
2019-02-14T16:33:08.248Z,90.70
2019-02-14T16:35:35.059Z,90.70
2019-02-14T16:38:02.282Z,90.70
2019-02-14T16:40:38.360Z,90.70
2019-02-14T16:42:59.776Z,90.70
2019-02-14T16:45:26.915Z,90.70
2019-02-14T16:47:53.588Z,90.70
2019-02-14T16:50:20.696Z,90.70
2019-02-14T16:52:47.269Z,90.70
2019-02-14T16:55:13.893Z,90.70
2019-02-14T16:57:41.572Z,90.70
2019-02-14T17:00:08.482Z,90.70
2019-02-14T17:02:35.133Z,90.70
2019-02-14T17:05:01.818Z,90.70
2019-02-14T17:07:29.425Z,90.70
2019-02-14T17:09:57.454Z,90.70
2019-02-14T17:12:26.000Z,90.70
2019-02-14T17:14:52.593Z,90.70
2019-02-14T17:17:27.725Z,90.70
2019-02-14T17:19:50.039Z,90.70
2019-02-14T17:22:17.048Z,90.70
2019-02-14T17:24:45.468Z,90.70
2019-02-14T17:27:12.195Z,90.70
2019-02-14T17:29:38.999Z,90.70
2019-02-14T17:32:07.157Z,90.60
2019-02-14T17:34:34.881Z,90.70
2019-02-14T17:37:01.726Z,90.70
2019-02-14T17:39:28.362Z,90.70
2019-02-14T17:41:55.419Z,90.70
2019-02-14T17:44:24.125Z,90.70
2019-02-14T17:46:50.871Z,90.70
2019-02-14T17:49:19.673Z,90.40
2019-02-14T17:51:47.505Z,90.70
2019-02-14T17:54:14.652Z,90.70
2019-02-14T17:56:41.281Z,90.70
2019-02-14T17:59:08.205Z,90.70
2019-02-14T18:01:35.056Z,90.60
2019-02-14T18:04:02.999Z,90.70
2019-02-14T18:06:29.827Z,90.70
2019-02-14T18:08:56.541Z,90.80
2019-02-14T18:11:23.321Z,90.70
2019-02-14T18:13:51.131Z,90.70
2019-02-14T18:16:17.920Z,90.70
2019-02-14T18:18:44.694Z,90.70
2019-02-14T18:21:11.555Z,90.70
2019-02-14T18:23:38.293Z,90.70
2019-02-14T18:26:05.010Z,90.70
2019-02-14T18:28:31.997Z,90.70
2019-02-14T18:30:58.928Z,90.70
2019-02-14T18:33:27.316Z,90.70
2019-02-14T18:35:53.968Z,90.70
2019-02-14T18:38:20.788Z,90.70
2019-02-14T18:40:47.560Z,91.10
2019-02-14T18:43:16.083Z,90.70
2019-02-14T18:45:42.926Z,90.80
2019-02-14T18:48:09.575Z,90.70
2019-02-14T18:50:36.537Z,90.80
2019-02-14T18:53:03.505Z,90.70
2019-02-14T18:55:30.291Z,90.70
2019-02-14T18:57:57.183Z,90.70
2019-02-14T19:00:23.931Z,90.70
2019-02-14T19:02:50.639Z,90.70
2019-02-14T19:05:17.462Z,90.70
2019-02-14T19:07:44.237Z,90.70
2019-02-14T19:10:12.779Z,90.70
2019-02-14T19:12:39.684Z,90.70
2019-02-14T19:17:45.644Z,89.40
2019-02-14T19:20:13.546Z,90.70
2019-02-14T19:22:40.241Z,90.70
2019-02-14T19:25:06.935Z,90.70
2019-02-14T19:27:33.841Z,90.70
2019-02-14T19:30:00.808Z,90.70
2019-02-14T19:32:27.632Z,90.70
2019-02-14T19:34:54.391Z,90.80
2019-02-14T19:37:21.503Z,90.70
2019-02-14T19:39:48.552Z,90.70
2019-02-14T19:42:15.417Z,90.70
2019-02-14T19:44:43.114Z,90.70
2019-02-14T19:47:10.048Z,90.70
2019-02-14T19:49:36.797Z,90.70
2019-02-14T19:52:03.721Z,90.70
2019-02-14T19:54:30.558Z,91.00
2019-02-14T19:56:57.327Z,90.70
2019-02-14T19:59:24.468Z,90.70
2019-02-14T20:01:51.112Z,90.70
2019-02-14T20:04:17.729Z,90.70
2019-02-14T20:06:44.470Z,90.70
2019-02-14T20:09:11.473Z,90.70
2019-02-14T20:11:38.192Z,90.70
2019-02-14T20:14:06.283Z,90.80
2019-02-14T20:16:33.265Z,90.70
2019-02-14T20:18:59.948Z,90.70
2019-02-14T20:21:26.768Z,90.70
2019-02-14T20:23:53.608Z,90.60
2019-02-14T20:26:21.446Z,91.10
2019-02-14T20:28:49.857Z,90.70
2019-02-14T20:31:16.831Z,90.70
2019-02-14T20:33:45.355Z,90.70
2019-02-14T20:36:12.388Z,90.70
2019-02-14T20:38:39.139Z,90.70
2019-02-14T20:41:05.809Z,90.70
2019-02-14T20:43:32.654Z,90.70
2019-02-14T20:45:59.419Z,90.70
2019-02-14T20:48:26.676Z,90.70
2019-02-14T20:50:53.428Z,90.70
2019-02-14T20:53:20.138Z,90.70
2019-02-14T20:55:46.890Z,90.70
2019-02-14T20:58:13.871Z,90.70
2019-02-14T21:00:40.748Z,90.70
2019-02-14T21:03:07.857Z,90.70
2019-02-14T21:05:34.671Z,90.70
2019-02-14T21:08:01.458Z,90.70
2019-02-14T21:10:31.918Z,90.70
2019-02-14T21:12:59.200Z,90.80
2019-02-14T21:15:25.953Z,90.70
2019-02-14T21:17:52.607Z,90.70
2019-02-14T21:20:19.430Z,90.70
2019-02-14T21:22:46.464Z,90.70
2019-02-14T21:25:13.635Z,90.70
2019-02-14T21:27:40.381Z,90.70
2019-02-14T21:30:07.865Z,90.70
2019-02-14T21:32:35.095Z,91.10
2019-02-14T21:35:03.873Z,90.80
2019-02-14T21:37:30.667Z,90.80
2019-02-14T21:39:58.466Z,90.80
2019-02-14T21:42:29.403Z,90.70
2019-02-14T21:44:54.745Z,90.70
2019-02-14T21:47:21.305Z,90.70
2019-02-14T21:49:47.993Z,90.70
2019-02-14T21:52:15.739Z,90.70
2019-02-14T21:54:43.033Z,90.70
2019-02-14T21:57:10.266Z,90.70
2019-02-14T21:59:38.129Z,90.70
2019-02-14T22:02:06.398Z,90.70
2019-02-14T22:04:33.373Z,90.70
2019-02-14T22:07:00.149Z,90.70
2019-02-14T22:09:26.970Z,90.70
2019-02-14T22:11:54.037Z,90.70
2019-02-14T22:14:20.765Z,90.70
2019-02-14T22:16:47.504Z,90.70
2019-02-14T22:19:14.588Z,90.80
2019-02-14T22:21:42.784Z,90.70
2019-02-14T22:24:09.496Z,90.80
2019-02-14T22:26:36.390Z,90.70
2019-02-14T22:29:03.056Z,90.80
2019-02-14T22:31:31.351Z,90.80
2019-02-14T22:33:57.960Z,90.80
2019-02-14T22:36:24.709Z,91.00
2019-02-14T22:38:51.331Z,90.90
2019-02-14T22:41:18.034Z,91.10
2019-02-14T22:43:44.859Z,90.70
2019-02-14T22:46:12.020Z,90.70
2019-02-14T22:48:38.954Z,90.70
2019-02-14T22:51:05.708Z,90.70
2019-02-14T22:53:32.522Z,90.70
2019-02-14T22:55:59.128Z,90.70
2019-02-14T22:58:25.852Z,90.70
2019-02-14T23:00:52.518Z,90.70
2019-02-14T23:03:19.374Z,90.70
2019-02-14T23:05:45.963Z,90.70
2019-02-14T23:08:12.683Z,90.80
2019-02-14T23:10:39.376Z,90.70
2019-02-14T23:13:06.154Z,90.70
2019-02-14T23:15:32.908Z,90.80
2019-02-14T23:17:59.548Z,90.70
2019-02-14T23:20:26.329Z,90.70
2019-02-14T23:22:53.058Z,90.70
2019-02-14T23:25:20.012Z,90.80
2019-02-14T23:27:47.297Z,91.10
2019-02-14T23:30:14.205Z,90.70
2019-02-14T23:32:40.847Z,91.10
2019-02-14T23:35:08.049Z,90.70
2019-02-14T23:37:36.228Z,90.60
2019-02-14T23:40:02.840Z,90.80
2019-02-14T23:42:31.038Z,90.80
2019-02-14T23:44:59.732Z,90.70
2019-02-14T23:47:26.402Z,90.70
2019-02-14T23:49:53.127Z,90.80
2019-02-14T23:52:19.930Z,90.70
2019-02-14T23:54:46.679Z,90.70
2019-02-14T23:57:13.367Z,90.70
2019-02-14T23:59:40.130Z,90.70
